Time;durP1;ratioP1;P1;durP2;ratioP2;P2;SDS_P1;SDS_P2;PMS_P1;PMS_P2;Temp;Humidity;BMP_temperature;BMP_pressure;BME280_temperature;BME280_humidity;BME280_pressure;Samples;Min_cycle;Max_cycle;Signal;HPM_P1;HPM_P2
2022/08/09 00:02:24;;;;;;;15.75;8.82;;;30.40;90.00;;;;;;5107355;28;20024;-52
2022/08/09 00:04:50;;;;;;;16.00;8.68;;;30.30;90.10;;;;;;5106870;28;20024;-53
2022/08/09 00:07:17;;;;;;;22.55;8.52;;;30.30;90.00;;;;;;5107163;28;20024;-50
2022/08/09 00:09:45;;;;;;;15.68;7.60;;;30.30;90.00;;;;;;5106758;28;20042;-56
2022/08/09 00:12:13;;;;;;;16.35;8.48;;;30.30;90.10;;;;;;5107243;28;20024;-49
2022/08/09 00:14:41;;;;;;;17.80;7.13;;;30.30;90.10;;;;;;5089170;28;20032;-51
2022/08/09 00:17:08;;;;;;;18.95;6.95;;;30.20;90.10;;;;;;5107457;28;20020;-54
2022/08/09 00:19:34;;;;;;;15.02;7.70;;;30.20;90.10;;;;;;5106424;28;20316;-53
2022/08/09 00:22:02;;;;;;;13.48;6.43;;;30.20;90.10;;;;;;5107035;28;20015;-53
2022/08/09 00:24:30;;;;;;;14.35;6.70;;;30.10;89.90;;;;;;5106508;28;20263;-49
2022/08/09 00:26:58;;;;;;;10.30;6.07;;;30.10;89.40;;;;;;5106702;28;20077;-55
2022/08/09 00:29:29;;;;;;;14.68;6.43;;;30.10;89.20;;;;;;5107118;28;20028;-51
2022/08/09 00:31:57;;;;;;;16.40;5.03;;;30.10;89.00;;;;;;5100429;28;20032;-52
2022/08/09 00:34:24;;;;;;;16.80;4.95;;;30.10;88.40;;;;;;5097393;28;20246;-55
2022/08/09 00:36:51;;;;;;;17.55;4.60;;;30.10;88.10;;;;;;5106497;28;20028;-51
2022/08/09 00:39:18;;;;;;;12.23;4.43;;;30.00;87.70;;;;;;5105976;28;20024;-46
2022/08/09 00:41:45;;;;;;;14.73;4.40;;;29.90;87.40;;;;;;5087914;28;20331;-53
2022/08/09 00:44:15;;;;;;;16.85;4.03;;;29.90;87.40;;;;;;5103878;28;20040;-47
2022/08/09 00:46:42;;;;;;;11.38;3.30;;;29.80;87.30;;;;;;5080939;28;20057;-51
2022/08/09 00:49:09;;;;;;;13.20;4.03;;;29.80;87.00;;;;;;5100004;28;20052;-48
2022/08/09 00:51:38;;;;;;;13.80;5.68;;;29.80;87.40;;;;;;5103744;28;20032;-49
2022/08/09 00:54:06;;;;;;;10.57;3.88;;;29.80;87.20;;;;;;5071860;28;20312;-52
2022/08/09 00:56:36;;;;;;;9.00;3.30;;;29.70;87.40;;;;;;5105011;28;20252;-50
2022/08/09 00:59:02;;;;;;;10.63;3.92;;;29.70;87.20;;;;;;5098248;28;20189;-47
2022/08/09 01:01:36;;;;;;;15.38;8.48;;;29.70;87.60;;;;;;5085953;28;20054;-46
2022/08/09 01:04:30;;;;;;;14.40;3.90;;;29.70;88.20;;;;;;5086917;28;20057;-48
2022/08/09 01:07:02;;;;;;;11.27;4.00;;;29.70;87.50;;;;;;5087363;28;20048;-52
2022/08/09 01:09:35;;;;;;;10.98;3.88;;;29.70;87.20;;;;;;5105422;28;20019;-52
2022/08/09 01:12:16;;;;;;;8.20;3.15;;;29.70;87.10;;;;;;5103705;28;20036;-50
2022/08/09 01:14:54;;;;;;;6.13;2.97;;;29.70;86.70;;;;;;5105331;28;20016;-49
2022/08/09 01:17:37;;;;;;;8.38;3.17;;;29.70;87.00;;;;;;5087428;28;20035;-49
2022/08/09 01:20:24;;;;;;;13.80;2.92;;;29.70;87.40;;;;;;5080570;28;20024;-49
2022/08/09 01:23:16;;;;;;;4.55;3.47;;;29.70;87.70;;;;;;5098517;28;20033;-48
2022/08/09 01:25:57;;;;;;;8.10;3.13;;;29.60;87.90;;;;;;5059923;28;20020;-47
2022/08/09 01:28:24;;;;;;;8.93;3.10;;;29.60;87.80;;;;;;5091374;28;20320;-49
2022/08/09 01:30:56;;;;;;;8.38;3.17;;;29.60;87.80;;;;;;5095027;28;20021;-47
2022/08/09 01:33:25;;;;;;;;;;;29.60;88.00;;;;;;5097377;28;20083;-49
2022/08/09 01:36:12;;;;;;;7.75;2.83;;;29.60;88.40;;;;;;5075298;28;19915;-50
2022/08/09 01:38:42;;;;;;;7.97;3.40;;;29.50;88.50;;;;;;5095510;28;20066;-48
2022/08/09 01:41:27;;;;;;;6.32;3.42;;;29.50;88.80;;;;;;5080364;28;20099;-46
2022/08/09 01:44:04;;;;;;;8.23;3.65;;;29.50;88.90;;;;;;5090131;28;20028;-48
2022/08/09 01:46:40;;;;;;;7.32;3.25;;;29.40;88.80;;;;;;5092729;28;20028;-52
2022/08/09 01:49:17;;;;;;;10.43;3.47;;;29.40;89.20;;;;;;5066997;28;20103;-51
2022/08/09 01:51:49;;;;;;;6.63;3.33;;;29.40;89.40;;;;;;5066338;28;20120;-50
2022/08/09 01:54:17;;;;;;;7.90;3.70;;;29.40;89.40;;;;;;5084459;28;20032;-47
2022/08/09 01:56:51;;;;;;;9.95;3.03;;;29.40;89.20;;;;;;5066060;28;20032;-48
2022/08/09 01:59:22;;;;;;;7.28;3.05;;;29.40;89.40;;;;;;5065106;28;20043;-48
2022/08/09 02:01:52;;;;;;;6.82;2.95;;;29.40;89.50;;;;;;5093853;28;20090;-50
2022/08/09 02:04:23;;;;;;;10.35;3.60;;;29.40;89.50;;;;;;5097286;28;20040;-56
2022/08/09 02:07:14;;;;;;;4.28;2.75;;;29.40;89.50;;;;;;5093403;28;20056;-48
2022/08/09 02:10:14;;;;;;;7.25;3.03;;;29.40;89.60;;;;;;5083815;28;20099;-49
2022/08/09 02:12:42;;;;;;;8.57;3.03;;;29.30;89.60;;;;;;5051014;28;20100;-49
2022/08/09 02:15:10;;;;;;;6.40;2.85;;;29.30;89.60;;;;;;5053439;28;20040;-52
2022/08/09 02:17:39;;;;;;;7.78;3.22;;;29.30;89.60;;;;;;5096269;28;20055;-49
2022/08/09 02:20:07;;;;;;;6.22;3.33;;;29.30;89.70;;;;;;5065837;28;20044;-53
2022/08/09 02:23:04;;;;;;;7.45;2.90;;;29.30;89.90;;;;;;5049700;28;20154;-47
2022/08/09 02:25:36;;;;;;;7.53;2.60;;;29.20;90.20;;;;;;5083642;28;20170;-46
2022/08/09 02:28:25;;;;;;;5.70;2.42;;;29.30;89.90;;;;;;5083943;28;20051;-49
2022/08/09 02:31:01;;;;;;;7.50;2.15;;;29.30;89.90;;;;;;5079775;28;20091;-47
2022/08/09 02:33:33;;;;;;;8.73;2.20;;;29.30;89.80;;;;;;5066890;28;20028;-46
2022/08/09 02:36:03;;;;;;;6.97;2.60;;;29.30;89.60;;;;;;5066424;28;20036;-47
2022/08/09 02:38:38;;;;;;;5.03;1.90;;;29.20;89.40;;;;;;5083607;28;20244;-53
2022/08/09 02:41:15;;;;;;;4.95;2.00;;;29.20;89.30;;;;;;5076972;28;20040;-49
2022/08/09 02:44:00;;;;;;;5.18;1.80;;;29.20;89.20;;;;;;5083713;28;20027;-49
2022/08/09 02:46:30;;;;;;;8.25;1.83;;;29.20;89.20;;;;;;5065841;28;20036;-51
2022/08/09 02:49:04;;;;;;;9.63;1.92;;;29.20;89.00;;;;;;5083487;28;20018;-54
2022/08/09 02:51:36;;;;;;;9.43;1.90;;;29.20;88.90;;;;;;5083721;28;20056;-49
2022/08/09 02:54:06;;;;;;;3.95;1.50;;;29.10;88.70;;;;;;5082385;28;20032;-50
2022/08/09 02:56:33;;;;;;;7.90;1.90;;;29.10;88.60;;;;;;5083859;28;20048;-49
2022/08/09 02:59:04;;;;;;;4.80;1.90;;;29.10;88.70;;;;;;5065875;28;20021;-50
2022/08/09 03:01:33;;;;;;;7.68;1.58;;;29.10;88.50;;;;;;5083088;28;20055;-50
2022/08/09 03:04:01;;;;;;;4.30;1.40;;;29.10;88.50;;;;;;5065307;28;20047;-50
2022/08/09 03:06:29;;;;;;;3.25;1.45;;;29.10;88.40;;;;;;5083587;28;20029;-49
2022/08/09 03:08:58;;;;;;;3.72;1.05;;;29.10;88.50;;;;;;5083579;28;20087;-49
2022/08/09 03:11:26;;;;;;;4.78;1.50;;;29.10;88.60;;;;;;5067786;28;20067;-47
2022/08/09 03:13:54;;;;;;;2.95;1.30;;;29.00;88.60;;;;;;5087449;28;20236;-54
2022/08/09 03:16:22;;;;;;;8.30;1.77;;;29.00;88.60;;;;;;5087670;28;20204;-47
2022/08/09 03:18:50;;;;;;;4.90;1.60;;;29.00;88.10;;;;;;5087345;28;20038;-50
2022/08/09 03:21:21;;;;;;;2.53;1.25;;;29.00;88.10;;;;;;5087401;28;20028;-48
2022/08/09 03:23:48;;;;;;;5.65;1.33;;;29.00;87.90;;;;;;5087478;28;20351;-50
2022/08/09 03:26:19;;;;;;;4.22;1.90;;;29.00;87.90;;;;;;5086644;28;20016;-53
2022/08/09 03:28:54;;;;;;;6.85;1.73;;;29.00;87.70;;;;;;5086811;28;20029;-49
2022/08/09 03:31:22;;;;;;;5.65;1.50;;;29.00;87.60;;;;;;5086132;28;20028;-52
2022/08/09 03:33:50;;;;;;;5.07;1.45;;;29.00;87.70;;;;;;5087284;28;20096;-54
2022/08/09 03:36:16;;;;;;;3.17;1.30;;;29.00;87.30;;;;;;5090132;28;20075;-48
2022/08/09 03:38:43;;;;;;;7.70;1.38;;;28.90;87.30;;;;;;5097142;28;20044;-48
2022/08/09 03:41:12;;;;;;;6.60;1.20;;;28.90;87.10;;;;;;5095422;28;20029;-48
2022/08/09 03:43:39;;;;;;;4.68;1.20;;;28.90;87.20;;;;;;5096497;28;20074;-46
2022/08/09 03:46:06;;;;;;;4.25;1.17;;;28.90;87.10;;;;;;5097457;28;20087;-54
2022/08/09 03:48:34;;;;;;;3.83;1.25;;;28.90;87.30;;;;;;5097410;28;20027;-47
2022/08/09 03:51:05;;;;;;;4.38;1.25;;;28.90;87.40;;;;;;5096778;28;20021;-50
2022/08/09 03:53:34;;;;;;;3.33;1.13;;;28.90;87.30;;;;;;5097193;28;20056;-50
2022/08/09 03:56:01;;;;;;;4.40;1.35;;;28.90;87.20;;;;;;5096496;28;20033;-46
2022/08/09 03:58:28;;;;;;;3.03;1.17;;;28.90;87.30;;;;;;5095031;28;20036;-52
2022/08/09 04:00:55;;;;;;;2.92;1.25;;;28.90;86.90;;;;;;5096982;28;20027;-50
2022/08/09 04:03:23;;;;;;;4.70;1.05;;;28.90;86.90;;;;;;5096306;28;20236;-48
2022/08/09 04:05:49;;;;;;;4.13;0.80;;;28.90;87.10;;;;;;5095070;28;20103;-48
2022/08/09 04:08:16;;;;;;;6.13;1.30;;;28.80;86.70;;;;;;5096511;28;20089;-50
2022/08/09 04:10:42;;;;;;;1.30;1.10;;;28.80;86.80;;;;;;5096387;28;20301;-48
2022/08/09 04:13:10;;;;;;;2.80;1.20;;;28.80;86.80;;;;;;5094745;28;20020;-48
2022/08/09 04:15:38;;;;;;;2.63;1.10;;;28.80;87.10;;;;;;5096576;28;20085;-49
2022/08/09 04:18:05;;;;;;;5.55;1.30;;;28.80;87.00;;;;;;5096316;28;20036;-48
2022/08/09 04:20:32;;;;;;;3.83;1.40;;;28.80;87.10;;;;;;5094781;28;20047;-47
2022/08/09 04:22:59;;;;;;;6.00;1.00;;;28.80;87.20;;;;;;5094637;28;20034;-49
2022/08/09 04:25:25;;;;;;;6.25;1.30;;;28.80;87.20;;;;;;5096268;28;20016;-53
2022/08/09 04:27:52;;;;;;;7.18;0.95;;;28.80;87.00;;;;;;5094949;28;20028;-46
2022/08/09 04:30:21;;;;;;;2.42;1.20;;;28.80;87.10;;;;;;5103578;28;20070;-47
2022/08/09 04:32:48;;;;;;;3.90;1.25;;;28.80;87.10;;;;;;5106725;28;20193;-45
2022/08/09 04:35:16;;;;;;;3.63;1.17;;;28.80;87.20;;;;;;5106554;28;20032;-50
2022/08/09 04:37:43;;;;;;;3.72;1.08;;;28.80;87.30;;;;;;5106587;28;20038;-51
2022/08/09 04:40:10;;;;;;;2.90;0.95;;;28.70;87.00;;;;;;5106318;28;20032;-50
2022/08/09 04:42:37;;;;;;;4.03;1.00;;;28.70;87.10;;;;;;5106478;28;20106;-46
2022/08/09 04:45:04;;;;;;;5.25;1.20;;;28.70;87.20;;;;;;5106377;28;20062;-53
2022/08/09 04:47:32;;;;;;;3.83;1.05;;;28.70;87.30;;;;;;5106639;28;20073;-47
2022/08/09 04:49:58;;;;;;;6.88;1.20;;;28.70;87.30;;;;;;5106388;28;20260;-47
2022/08/09 04:52:28;;;;;;;4.25;0.90;;;28.70;87.20;;;;;;5106464;28;20040;-47
2022/08/09 04:54:58;;;;;;;2.35;1.10;;;28.70;87.20;;;;;;5106146;28;20200;-48
2022/08/09 04:57:25;;;;;;;4.35;1.20;;;28.70;87.40;;;;;;5106783;28;20234;-51
2022/08/09 04:59:54;;;;;;;2.03;0.93;;;28.70;87.80;;;;;;5106248;28;20234;-49
2022/08/09 05:02:24;;;;;;;4.00;1.00;;;28.60;87.20;;;;;;5088063;28;20230;-52
2022/08/09 05:04:50;;;;;;;5.05;0.98;;;28.70;87.20;;;;;;5105559;28;20079;-55
2022/08/09 05:07:18;;;;;;;1.75;0.95;;;28.60;87.30;;;;;;5106376;28;20269;-45
2022/08/09 05:09:45;;;;;;;5.43;2.35;;;28.60;87.20;;;;;;5105895;28;20023;-48
2022/08/09 05:12:11;;;;;;;9.93;7.90;;;28.60;87.90;;;;;;5106418;28;20361;-49
2022/08/09 05:14:38;;;;;;;7.88;5.22;;;28.60;87.40;;;;;;5105910;28;20099;-49
2022/08/09 05:17:05;;;;;;;4.47;3.33;;;28.60;87.50;;;;;;5106222;28;20028;-51
2022/08/09 05:19:31;;;;;;;7.22;3.33;;;28.60;87.30;;;;;;5105721;28;20066;-47
2022/08/09 05:21:58;;;;;;;6.93;2.72;;;28.60;87.40;;;;;;5105995;28;20043;-53
2022/08/09 05:24:24;;;;;;;3.88;2.72;;;28.60;87.50;;;;;;5105605;28;20015;-47
2022/08/09 05:27:22;;;;;;;3.75;2.17;;;28.50;87.40;;;;;;5105679;28;20086;-47
2022/08/09 05:32:40;;;;;;;5.45;2.00;;;28.50;87.60;;;;;;5105444;28;20062;-50
2022/08/09 05:35:07;;;;;;;6.00;2.40;;;28.50;87.90;;;;;;5105323;28;20036;-54
2022/08/09 05:37:33;;;;;;;5.97;2.25;;;28.50;88.00;;;;;;5105468;28;20028;-53
2022/08/09 05:40:00;;;;;;;3.80;1.90;;;28.50;88.00;;;;;;5105350;28;20047;-51
2022/08/09 05:42:27;;;;;;;2.63;1.80;;;28.50;88.20;;;;;;5105626;28;20035;-54
2022/08/09 05:44:54;;;;;;;3.92;1.70;;;28.50;88.20;;;;;;5105242;28;20016;-54
2022/08/09 05:47:22;;;;;;;5.53;1.90;;;28.50;88.40;;;;;;5105520;28;20020;-52
2022/08/09 05:49:50;;;;;;;5.53;1.98;;;28.50;88.60;;;;;;5105109;28;20035;-51
2022/08/09 05:52:16;;;;;;;2.97;1.50;;;28.40;88.60;;;;;;5105406;28;20055;-53
2022/08/09 05:54:43;;;;;;;5.47;1.90;;;28.40;88.70;;;;;;5105069;28;20243;-54
2022/08/09 05:57:10;;;;;;;6.47;1.50;;;28.40;88.70;;;;;;5105538;28;20081;-52
2022/08/09 06:00:27;;;;;;;4.00;1.27;;;28.40;88.60;;;;;;5104981;28;20016;-49
2022/08/09 06:02:57;;;;;;;6.10;1.48;;;28.40;88.70;;;;;;5097590;28;20024;-56
2022/08/09 06:05:28;;;;;;;6.47;1.50;;;28.40;88.70;;;;;;5104750;28;20039;-48
2022/08/09 06:07:55;;;;;;;3.13;1.30;;;28.40;88.50;;;;;;5104758;28;20028;-53
2022/08/09 06:10:36;;;;;;;4.18;1.40;;;28.40;88.40;;;;;;5104877;28;20031;-53
2022/08/09 06:13:08;;;;;;;2.45;1.20;;;28.40;88.20;;;;;;5104757;28;20027;-51
2022/08/09 06:15:34;;;;;;;;;;;28.40;88.20;;;;;;5105159;28;20051;-52
2022/08/09 06:18:02;;;;;;;7.43;1.30;;;28.40;88.40;;;;;;5104481;28;19900;-52
2022/08/09 06:20:29;;;;;;;2.58;1.13;;;28.40;88.40;;;;;;5104771;28;20048;-49
2022/08/09 06:22:56;;;;;;;4.72;1.13;;;28.40;88.40;;;;;;5104477;28;20020;-53
2022/08/09 06:25:23;;;;;;;6.80;1.00;;;28.30;88.30;;;;;;5104424;28;20016;-52
2022/08/09 06:27:50;;;;;;;3.25;1.15;;;28.30;88.30;;;;;;5104294;28;20058;-49
2022/08/09 06:30:17;;;;;;;4.68;1.20;;;28.30;88.20;;;;;;5104475;28;20016;-51
2022/08/09 06:32:45;;;;;;;3.10;1.27;;;28.40;88.40;;;;;;5104293;28;20027;-50
2022/08/09 06:35:12;;;;;;;4.55;0.93;;;28.30;88.30;;;;;;5104377;28;20211;-54
2022/08/09 06:37:38;;;;;;;7.28;1.30;;;28.30;88.30;;;;;;5104323;28;20028;-50
2022/08/09 06:40:06;;;;;;;2.08;1.02;;;28.30;88.40;;;;;;5104390;28;20032;-51
2022/08/09 06:42:32;;;;;;;3.97;1.30;;;28.30;88.30;;;;;;5104804;28;20323;-53
2022/08/09 06:44:59;;;;;;;4.05;1.30;;;28.30;88.30;;;;;;5104020;28;20082;-51
2022/08/09 06:47:26;;;;;;;3.85;1.23;;;28.30;88.50;;;;;;5104491;28;20087;-49
2022/08/09 06:49:52;;;;;;;4.07;1.40;;;28.30;88.60;;;;;;5104287;28;20012;-54
2022/08/09 06:52:19;;;;;;;4.30;1.17;;;28.20;88.60;;;;;;5104359;28;20055;-51
2022/08/09 06:54:46;;;;;;;3.88;1.30;;;28.30;88.70;;;;;;5104091;28;20026;-50
2022/08/09 06:57:13;;;;;;;5.15;1.23;;;28.30;88.70;;;;;;5104483;28;20036;-50
2022/08/09 06:59:41;;;;;;;2.83;1.17;;;28.30;88.70;;;;;;5104440;28;20031;-54
2022/08/09 07:02:07;;;;;;;2.95;1.10;;;28.30;88.60;;;;;;5103380;28;20054;-47
2022/08/09 07:04:34;;;;;;;3.92;1.20;;;28.30;88.60;;;;;;5103682;28;20104;-51
2022/08/09 07:07:02;;;;;;;3.95;1.10;;;28.30;88.70;;;;;;5104535;28;20016;-51
2022/08/09 07:09:29;;;;;;;3.17;1.10;;;28.20;88.70;;;;;;5104481;28;20149;-53
2022/08/09 07:11:56;;;;;;;2.58;1.30;;;28.20;88.80;;;;;;5104433;28;20032;-48
2022/08/09 07:14:22;;;;;;;4.88;1.20;;;28.20;89.00;;;;;;5104025;28;20016;-53
2022/08/09 07:16:49;;;;;;;3.78;1.00;;;28.20;89.10;;;;;;5104142;28;20425;-50
2022/08/09 07:19:16;;;;;;;2.85;1.40;;;28.20;89.20;;;;;;5103896;28;20050;-51
2022/08/09 07:21:44;;;;;;;3.63;1.02;;;28.20;89.20;;;;;;5104171;28;20028;-50
2022/08/09 07:24:10;;;;;;;2.67;1.40;;;28.20;89.30;;;;;;5103201;28;20020;-51
2022/08/09 07:26:37;;;;;;;6.57;1.10;;;28.20;89.40;;;;;;5103716;28;20035;-53
2022/08/09 07:29:04;;;;;;;5.03;1.20;;;28.20;89.50;;;;;;5103499;28;20020;-53
2022/08/09 07:31:30;;;;;;;3.25;1.20;;;28.20;89.70;;;;;;5103397;28;20250;-49
2022/08/09 07:33:57;;;;;;;3.67;1.17;;;28.10;89.80;;;;;;5103449;28;20039;-53
2022/08/09 07:36:24;;;;;;;5.97;1.10;;;28.10;90.00;;;;;;5103559;28;20073;-46
2022/08/09 07:38:50;;;;;;;6.30;1.52;;;28.10;90.00;;;;;;5103325;28;20024;-51
2022/08/09 07:41:17;;;;;;;4.43;1.40;;;28.10;90.10;;;;;;5103216;28;20107;-52
2022/08/09 07:43:44;;;;;;;6.47;1.30;;;28.10;90.20;;;;;;5103609;28;20066;-52
2022/08/09 07:46:10;;;;;;;7.32;1.33;;;28.10;90.20;;;;;;5103991;28;20193;-52
2022/08/09 07:48:37;;;;;;;7.47;1.20;;;28.00;90.30;;;;;;5103633;28;20019;-52
2022/08/09 07:51:03;;;;;;;4.43;1.20;;;28.00;90.50;;;;;;5103861;28;20077;-46
2022/08/09 07:53:31;;;;;;;6.72;1.70;;;28.00;90.70;;;;;;5103488;28;20324;-53
2022/08/09 07:55:58;;;;;;;7.07;1.48;;;28.00;90.70;;;;;;5103439;28;20027;-48
2022/08/09 07:58:24;;;;;;;3.47;1.15;;;28.00;90.80;;;;;;5107209;28;20028;-48
2022/08/09 08:00:51;;;;;;;5.78;1.35;;;28.00;90.70;;;;;;5107632;28;20208;-50
2022/08/09 08:03:17;;;;;;;3.05;1.30;;;28.00;90.70;;;;;;5106870;28;20027;-51
2022/08/09 08:05:44;;;;;;;6.88;1.40;;;28.00;90.70;;;;;;5107312;28;20036;-47
2022/08/09 08:08:10;;;;;;;5.20;1.30;;;28.00;90.70;;;;;;5107221;28;20016;-54
2022/08/09 08:10:37;;;;;;;5.47;1.27;;;28.00;90.80;;;;;;5107117;28;20036;-51
2022/08/09 08:13:04;;;;;;;4.70;1.20;;;28.00;90.90;;;;;;5107225;28;20027;-47
2022/08/09 08:15:31;;;;;;;4.18;1.30;;;27.90;90.80;;;;;;5107100;28;20020;-49
2022/08/09 08:17:58;;;;;;;3.45;1.20;;;27.90;90.80;;;;;;5106824;28;20049;-54
2022/08/09 08:20:26;;;;;;;5.10;1.20;;;27.90;90.80;;;;;;5107217;28;20110;-48
2022/08/09 08:22:52;;;;;;;8.40;1.10;;;27.90;90.80;;;;;;5107148;28;20028;-48
2022/08/09 08:25:19;;;;;;;3.78;1.20;;;27.90;90.80;;;;;;5106923;28;20122;-50
2022/08/09 08:27:45;;;;;;;5.07;1.25;;;27.90;90.80;;;;;;5106915;28;20024;-52
2022/08/09 08:30:12;;;;;;;4.15;1.40;;;27.90;90.70;;;;;;5106721;28;20316;-50
2022/08/09 08:32:40;;;;;;;3.38;1.10;;;27.90;90.60;;;;;;5106625;28;20051;-53
2022/08/09 08:35:07;;;;;;;5.80;1.23;;;27.90;90.60;;;;;;5106619;28;20027;-49
2022/08/09 08:37:34;;;;;;;5.00;1.30;;;27.90;90.50;;;;;;5106819;28;20028;-47
2022/08/09 08:40:01;;;;;;;4.82;1.10;;;27.80;90.40;;;;;;5106500;28;20265;-52
2022/08/09 08:42:29;;;;;;;4.97;1.30;;;27.80;90.40;;;;;;5106806;28;20364;-47
2022/08/09 08:45:00;;;;;;;2.40;1.13;;;27.80;90.50;;;;;;5106241;28;20316;-50
2022/08/09 08:47:28;;;;;;;3.72;1.20;;;27.80;90.40;;;;;;5106954;28;20056;-52
2022/08/09 08:49:56;;;;;;;4.05;1.17;;;27.80;90.40;;;;;;5106357;28;20065;-46
2022/08/09 08:52:25;;;;;;;5.15;1.45;;;27.80;90.40;;;;;;5106413;28;20044;-52
2022/08/09 08:54:57;;;;;;;3.35;1.40;;;27.80;90.30;;;;;;5106188;28;20020;-55
2022/08/09 08:57:26;;;;;;;4.95;1.35;;;27.80;90.40;;;;;;5106897;28;20051;-49
2022/08/09 08:59:53;;;;;;;4.15;1.48;;;27.80;90.40;;;;;;5106362;28;20091;-50
2022/08/09 09:02:25;;;;;;;4.20;1.20;;;27.80;90.40;;;;;;5106524;28;20080;-52
2022/08/09 09:04:54;;;;;;;3.20;1.42;;;27.70;90.20;;;;;;5106447;28;20063;-52
2022/08/09 09:07:23;;;;;;;5.70;1.48;;;27.70;90.20;;;;;;5106434;28;20047;-47
2022/08/09 09:09:52;;;;;;;4.75;1.20;;;27.80;90.20;;;;;;5105482;28;20322;-52
2022/08/09 09:12:21;;;;;;;4.22;1.40;;;27.70;90.20;;;;;;5106632;28;20032;-47
2022/08/09 09:14:49;;;;;;;4.25;1.17;;;27.70;90.10;;;;;;5105967;28;20050;-47
2022/08/09 09:17:16;;;;;;;5.90;1.20;;;27.70;90.10;;;;;;5106294;28;20035;-48
2022/08/09 09:19:43;;;;;;;5.07;1.20;;;27.70;90.20;;;;;;5105747;28;20020;-51
2022/08/09 09:22:12;;;;;;;4.75;1.30;;;27.70;90.20;;;;;;5106082;28;20040;-49
2022/08/09 09:24:49;;;;;;;4.88;1.60;;;27.70;90.30;;;;;;5105709;28;20204;-50
2022/08/09 09:27:25;;;;;;;4.15;1.40;;;27.60;90.20;;;;;;5105717;28;20028;-51
2022/08/09 09:29:53;;;;;;;5.07;1.02;;;27.60;90.10;;;;;;5105608;28;20011;-47
2022/08/09 09:32:23;;;;;;;5.25;1.40;;;27.60;90.10;;;;;;5105930;28;20107;-51
2022/08/09 09:35:08;;;;;;;4.57;1.10;;;27.60;90.00;;;;;;5105402;28;20015;-47
2022/08/09 09:37:35;;;;;;;3.72;1.00;;;27.60;90.10;;;;;;5105401;28;20370;-47
2022/08/09 09:40:01;;;;;;;4.80;1.05;;;27.60;90.10;;;;;;5105396;28;20020;-50
2022/08/09 09:42:29;;;;;;;2.75;1.13;;;27.60;90.00;;;;;;5105739;28;20272;-52
2022/08/09 09:45:03;;;;;;;1.73;1.00;;;27.60;90.00;;;;;;5105201;28;20057;-50
2022/08/09 09:47:30;;;;;;;5.60;1.00;;;27.60;90.00;;;;;;5105733;28;20074;-54
2022/08/09 09:49:58;;;;;;;4.82;1.05;;;27.50;90.00;;;;;;5105422;28;20319;-47
2022/08/09 09:52:28;;;;;;;4.30;1.30;;;27.50;89.90;;;;;;5105342;28;20060;-46
2022/08/09 09:55:06;;;;;;;5.53;1.65;;;27.50;89.90;;;;;;5105004;28;20032;-51
2022/08/09 09:57:33;;;;;;;4.93;1.10;;;27.50;89.80;;;;;;5105039;28;20091;-46
2022/08/09 10:00:00;;;;;;;7.25;1.95;;;27.50;89.70;;;;;;5104938;28;20036;-48
2022/08/09 10:02:28;;;;;;;5.47;1.48;;;27.50;89.70;;;;;;5105153;28;20363;-48
2022/08/09 10:05:06;;;;;;;5.30;1.98;;;27.50;90.10;;;;;;5104756;28;20039;-46
2022/08/09 10:07:33;;;;;;;6.47;2.35;;;27.50;89.40;;;;;;5104652;28;20024;-48
2022/08/09 10:10:00;;;;;;;7.30;2.58;;;27.50;89.40;;;;;;5104831;28;20031;-50
2022/08/09 10:12:36;;;;;;;5.93;2.30;;;27.50;89.40;;;;;;5105425;28;20048;-49
2022/08/09 10:15:15;;;;;;;7.55;2.40;;;27.50;89.30;;;;;;5104690;28;20063;-47
2022/08/09 10:17:46;;;;;;;6.82;2.75;;;27.50;89.30;;;;;;5104791;28;20039;-49
2022/08/09 10:20:19;;;;;;;5.30;1.90;;;27.50;89.20;;;;;;5103962;28;20043;-48
2022/08/09 10:22:47;;;;;;;5.85;2.00;;;27.50;89.10;;;;;;5104694;28;20319;-44
2022/08/09 10:25:15;;;;;;;3.33;1.80;;;27.40;89.10;;;;;;5104399;28;20039;-45
2022/08/09 10:27:46;;;;;;;7.10;2.38;;;27.40;89.40;;;;;;5104815;28;20023;-48
2022/08/09 10:30:16;;;;;;;8.93;2.10;;;27.40;89.40;;;;;;5104507;28;20043;-51
2022/08/09 10:32:44;;;;;;;5.13;1.90;;;27.40;89.50;;;;;;5104219;28;20324;-48
2022/08/09 10:35:11;;;;;;;4.55;1.70;;;27.40;89.60;;;;;;5104235;28;20027;-50
2022/08/09 10:37:38;;;;;;;9.00;2.80;;;27.40;89.70;;;;;;5104268;28;20139;-48
2022/08/09 10:40:06;;;;;;;6.20;2.15;;;27.40;89.80;;;;;;5103276;28;20210;-51
2022/08/09 10:42:33;;;;;;;9.68;2.15;;;27.30;89.90;;;;;;5104469;28;20046;-46
2022/08/09 10:45:12;;;;;;;8.48;2.50;;;27.30;90.00;;;;;;5104275;28;20083;-53
2022/08/09 10:47:59;;;;;;;6.90;2.10;;;27.30;90.00;;;;;;5104394;28;20044;-51
2022/08/09 10:51:11;;;;;;;10.27;2.25;;;27.30;89.90;;;;;;5104100;28;20020;-50
2022/08/09 10:53:52;;;;;;;9.95;2.30;;;27.30;90.00;;;;;;5032448;28;20060;-52
2022/08/09 10:56:30;;;;;;;11.00;2.83;;;27.30;90.00;;;;;;5104438;28;20042;-47
2022/08/09 10:58:59;;;;;;;6.35;2.38;;;27.30;90.00;;;;;;5103902;28;20059;-50
2022/08/09 11:01:32;;;;;;;6.55;2.80;;;27.30;90.00;;;;;;5103934;28;20201;-52
2022/08/09 11:04:22;;;;;;;5.78;2.30;;;27.30;90.20;;;;;;5103765;28;20031;-49
2022/08/09 11:06:57;;;;;;;8.00;2.90;;;27.30;90.10;;;;;;5104028;28;20089;-49
2022/08/09 11:09:44;;;;;;;12.15;2.80;;;27.30;90.10;;;;;;5103480;28;20078;-52
2022/08/09 11:12:25;;;;;;;12.63;2.92;;;27.30;90.20;;;;;;5089886;28;20040;-48
2022/08/09 11:14:54;;;;;;;12.75;3.60;;;27.30;90.30;;;;;;5103760;28;20024;-50
2022/08/09 11:17:21;;;;;;;14.13;3.30;;;27.30;90.50;;;;;;5104206;28;20138;-52
2022/08/09 11:20:11;;;;;;;145.95;10.02;;;27.30;90.50;;;;;;5103513;28;20024;-50
2022/08/09 11:22:44;;;;;;;48.67;5.78;;;27.30;90.60;;;;;;5103471;28;20095;-50
2022/08/09 11:25:14;;;;;;;29.50;5.22;;;27.30;90.60;;;;;;5103448;28;20043;-53
2022/08/09 11:27:45;;;;;;;18.77;4.50;;;27.30;90.70;;;;;;5103523;28;20027;-51
2022/08/09 11:30:32;;;;;;;16.88;4.70;;;27.30;90.60;;;;;;5102625;28;20103;-52
2022/08/09 11:33:16;;;;;;;10.80;3.35;;;27.30;90.60;;;;;;5101766;28;20027;-58
2022/08/09 11:36:00;;;;;;;9.73;3.42;;;27.30;90.70;;;;;;5107347;28;20047;-50
2022/08/09 11:38:28;;;;;;;11.50;3.70;;;27.30;90.60;;;;;;5107262;28;20091;-46
2022/08/09 11:40:55;;;;;;;8.38;3.53;;;27.30;90.60;;;;;;5107523;28;20036;-47
2022/08/09 11:43:28;;;;;;;17.60;9.48;;;27.30;90.10;;;;;;5107026;28;20031;-49
2022/08/09 11:45:55;;;;;;;18.67;11.88;;;27.40;89.90;;;;;;5107244;28;20102;-46
2022/08/09 11:48:26;;;;;;;15.82;9.88;;;27.40;89.60;;;;;;5107210;28;20216;-47
2022/08/09 11:51:00;;;;;;;14.57;7.53;;;27.40;90.00;;;;;;5080341;28;20024;-52
2022/08/09 11:53:32;;;;;;;11.98;5.68;;;27.40;90.00;;;;;;5085026;28;20063;-47
2022/08/09 11:56:24;;;;;;;;;;;27.50;90.00;;;;;;5085521;28;20062;-49
2022/08/09 11:58:57;;;;;;;11.45;4.80;;;27.50;90.00;;;;;;5071897;28;19904;-52
2022/08/09 12:01:34;;;;;;;10.52;4.70;;;27.40;90.10;;;;;;5085472;28;20052;-56
2022/08/09 12:04:04;;;;;;;8.65;3.55;;;27.50;90.20;;;;;;5085217;28;20020;-50
2022/08/09 12:06:32;;;;;;;10.80;5.03;;;27.40;90.20;;;;;;5085451;28;20033;-49
2022/08/09 12:08:59;;;;;;;11.70;4.68;;;27.40;90.30;;;;;;5086821;28;20020;-49
2022/08/09 12:11:28;;;;;;;13.32;4.90;;;27.40;90.30;;;;;;5087064;28;20300;-47
2022/08/09 12:14:03;;;;;;;10.23;4.25;;;27.50;90.40;;;;;;5105668;28;20085;-47
2022/08/09 12:16:35;;;;;;;10.18;3.90;;;27.50;90.40;;;;;;5107189;28;20258;-54
2022/08/09 12:19:04;;;;;;;;;;;27.50;90.60;;;;;;5107137;28;20032;-51
2022/08/09 12:21:42;;;;;;;7.28;3.40;;;27.50;90.80;;;;;;5107096;28;20183;-48
2022/08/09 12:24:11;;;;;;;6.38;2.97;;;27.40;90.90;;;;;;5106393;28;20074;-53
2022/08/09 12:26:38;;;;;;;6.45;3.10;;;27.40;90.80;;;;;;5097658;28;20028;-52
2022/08/09 12:29:04;;;;;;;7.78;3.60;;;27.40;91.00;;;;;;5086411;28;20208;-47
2022/08/09 12:31:31;;;;;;;6.30;3.40;;;27.40;90.80;;;;;;5086175;28;20017;-51
2022/08/09 12:33:58;;;;;;;7.53;3.30;;;27.50;90.80;;;;;;5086438;28;20016;-50
2022/08/09 12:36:24;;;;;;;9.05;3.45;;;27.40;90.70;;;;;;5098634;28;20032;-53
2022/08/09 12:38:53;;;;;;;7.75;3.05;;;27.50;90.70;;;;;;5106496;28;20036;-51
2022/08/09 12:41:31;;;;;;;7.20;2.60;;;27.50;90.70;;;;;;5106465;28;20136;-50
2022/08/09 12:44:00;;;;;;;5.97;2.05;;;27.50;90.70;;;;;;5105319;28;20032;-51
2022/08/09 12:46:27;;;;;;;4.20;2.33;;;27.50;90.50;;;;;;5106548;28;20042;-50
2022/08/09 12:48:57;;;;;;;7.80;2.20;;;27.50;90.60;;;;;;5106330;28;20016;-45
2022/08/09 12:51:24;;;;;;;3.38;1.70;;;27.50;90.50;;;;;;5089786;28;20059;-47
2022/08/09 12:53:59;;;;;;;4.32;2.03;;;27.50;90.50;;;;;;5085286;28;20332;-50
2022/08/09 12:56:26;;;;;;;5.15;2.00;;;27.50;90.50;;;;;;5086022;28;20033;-52
2022/08/09 12:59:11;;;;;;;3.92;1.80;;;27.50;90.50;;;;;;5085564;28;20021;-49
2022/08/09 13:01:43;;;;;;;6.28;1.60;;;27.50;90.50;;;;;;5097729;28;20032;-52
2022/08/09 13:04:12;;;;;;;4.40;1.63;;;27.50;90.50;;;;;;5105666;28;20035;-50
2022/08/09 13:06:44;;;;;;;5.93;1.85;;;27.50;90.50;;;;;;5105937;28;20031;-46